createdAt,value
2023-05-02T00:00:12.549Z,3.33
2023-05-02T00:02:42.344Z,3.25
2023-05-02T00:05:10.463Z,3.48
2023-05-02T00:07:37.832Z,3.19
2023-05-02T00:10:05.516Z,3.18
2023-05-02T00:12:33.724Z,3.21
2023-05-02T00:15:03.346Z,3.30
2023-05-02T00:17:30.160Z,3.11
2023-05-02T00:19:57.569Z,3.39
2023-05-02T00:22:25.180Z,3.52
2023-05-02T00:24:56.905Z,3.26
2023-05-02T00:27:24.990Z,3.25
2023-05-02T00:29:52.385Z,3.00
2023-05-02T00:32:19.177Z,3.19
2023-05-02T00:34:46.203Z,3.17
2023-05-02T00:37:12.965Z,3.15
2023-05-02T00:39:41.740Z,3.17
2023-05-02T00:42:09.900Z,2.99
2023-05-02T00:44:38.154Z,3.15
2023-05-02T00:47:05.222Z,3.27
2023-05-02T00:49:33.004Z,3.06
2023-05-02T00:52:00.192Z,3.12
2023-05-02T00:54:26.941Z,3.03
2023-05-02T00:56:54.005Z,3.06
2023-05-02T00:59:20.817Z,3.18
2023-05-02T01:01:57.083Z,3.07
2023-05-02T01:04:45.485Z,3.01
2023-05-02T01:07:42.981Z,3.21
2023-05-02T01:10:34.596Z,3.18
2023-05-02T01:13:21.410Z,3.20
2023-05-02T01:15:52.641Z,3.34
2023-05-02T01:18:22.577Z,3.25
2023-05-02T01:20:53.244Z,3.24
2023-05-02T01:23:26.159Z,3.22
2023-05-02T01:26:24.495Z,3.35
2023-05-02T01:29:07.297Z,3.16
2023-05-02T01:31:39.876Z,3.54
2023-05-02T01:34:09.941Z,4.40
2023-05-02T01:36:43.827Z,4.17
2023-05-02T01:39:11.612Z,4.42
2023-05-02T01:41:38.642Z,3.89
2023-05-02T01:44:05.736Z,3.75
2023-05-02T01:46:40.272Z,3.76
2023-05-02T01:49:08.657Z,3.97
2023-05-02T01:51:44.204Z,4.26
2023-05-02T01:54:11.989Z,3.97
2023-05-02T01:56:38.742Z,4.49
2023-05-02T01:59:06.522Z,4.21
2023-05-02T02:01:33.706Z,4.19
2023-05-02T02:04:00.872Z,5.44
2023-05-02T02:06:29.171Z,5.51
2023-05-02T02:08:56.235Z,5.48
2023-05-02T02:11:26.655Z,5.37
2023-05-02T02:13:57.674Z,5.17
2023-05-02T02:16:30.428Z,5.04
2023-05-02T02:18:57.500Z,5.19
2023-05-02T02:21:24.225Z,5.73
2023-05-02T02:23:51.502Z,6.58
2023-05-02T02:26:18.405Z,6.33
2023-05-02T02:28:45.165Z,5.84
2023-05-02T02:31:11.963Z,6.20
2023-05-02T02:33:38.999Z,5.42
2023-05-02T02:36:12.744Z,5.69
2023-05-02T02:38:55.704Z,5.65
2023-05-02T02:41:23.544Z,6.38
2023-05-02T02:44:13.502Z,6.87
2023-05-02T02:47:00.362Z,6.61
2023-05-02T02:50:10.847Z,6.94
2023-05-02T02:52:52.511Z,6.85
2023-05-02T02:55:22.179Z,6.44
2023-05-02T02:57:57.748Z,6.61
2023-05-02T03:00:25.790Z,6.58
2023-05-02T03:02:52.589Z,7.11
2023-05-02T03:05:19.679Z,6.89
2023-05-02T03:07:49.421Z,6.84
2023-05-02T03:10:17.123Z,7.26
2023-05-02T03:12:45.190Z,7.41
2023-05-02T03:15:56.959Z,7.40
2023-05-02T03:18:23.783Z,7.00
2023-05-02T03:20:50.807Z,6.90
2023-05-02T03:23:24.967Z,7.30
2023-05-02T03:25:52.198Z,7.24
2023-05-02T03:28:18.970Z,7.51
2023-05-02T03:30:48.728Z,7.35
2023-05-02T03:33:15.884Z,7.67
2023-05-02T03:35:42.982Z,7.87
2023-05-02T03:38:10.018Z,7.69
2023-05-02T03:40:37.051Z,7.41
2023-05-02T03:43:06.704Z,7.33
2023-05-02T03:45:33.465Z,8.00
2023-05-02T03:48:01.378Z,7.25
2023-05-02T03:50:29.119Z,7.71
2023-05-02T03:52:56.225Z,7.91
2023-05-02T03:55:23.331Z,7.70
2023-05-02T03:57:51.279Z,7.59
2023-05-02T04:00:18.181Z,7.92
2023-05-02T04:02:47.792Z,7.91
2023-05-02T04:05:14.985Z,8.41
2023-05-02T04:07:42.110Z,8.42
2023-05-02T04:10:10.066Z,8.41
2023-05-02T04:12:39.480Z,8.85
2023-05-02T04:15:07.849Z,9.04
2023-05-02T04:17:35.248Z,8.71
2023-05-02T04:20:05.044Z,9.05
2023-05-02T04:22:32.714Z,9.03
2023-05-02T04:24:59.524Z,8.35
2023-05-02T04:27:29.365Z,8.53
2023-05-02T04:29:56.053Z,8.35
2023-05-02T04:32:23.651Z,8.41
2023-05-02T04:34:50.629Z,8.07
2023-05-02T04:37:17.494Z,8.38
2023-05-02T04:39:44.208Z,8.71
2023-05-02T04:42:10.963Z,7.68
2023-05-02T04:44:37.659Z,8.21
2023-05-02T04:47:04.736Z,8.67
2023-05-02T04:49:32.113Z,8.44
2023-05-02T04:51:58.975Z,8.10
2023-05-02T04:54:26.003Z,8.12
2023-05-02T04:56:52.882Z,8.65
2023-05-02T04:59:21.264Z,9.17
2023-05-02T05:01:55.118Z,8.70
2023-05-02T05:04:24.780Z,8.27
2023-05-02T05:06:52.074Z,8.28
2023-05-02T05:09:21.325Z,8.50
2023-05-02T05:11:48.018Z,7.91
2023-05-02T05:14:15.245Z,8.24
2023-05-02T05:16:42.494Z,8.21
2023-05-02T05:19:12.658Z,7.70
2023-05-02T05:21:39.725Z,7.57
2023-05-02T05:24:07.561Z,7.85
2023-05-02T05:26:37.514Z,7.57
2023-05-02T05:29:04.881Z,7.54
2023-05-02T05:31:33.112Z,7.62
2023-05-02T05:34:00.345Z,7.55
2023-05-02T05:36:28.154Z,7.52
2023-05-02T05:38:55.195Z,7.30
2023-05-02T05:41:22.664Z,7.60
2023-05-02T05:43:50.387Z,7.69
2023-05-02T05:46:17.593Z,7.08
2023-05-02T05:48:44.316Z,6.81
2023-05-02T05:51:12.068Z,6.91
2023-05-02T05:53:39.192Z,6.82
2023-05-02T05:56:11.501Z,6.89
2023-05-02T05:58:38.726Z,6.65
2023-05-02T06:01:05.874Z,6.55
2023-05-02T06:03:33.277Z,6.62
2023-05-02T06:06:00.391Z,6.88
2023-05-02T06:08:27.433Z,6.59
2023-05-02T06:10:54.760Z,6.48
2023-05-02T06:13:24.738Z,6.63
2023-05-02T06:15:52.816Z,6.55
2023-05-02T06:18:20.087Z,6.67
2023-05-02T06:20:47.107Z,6.89
2023-05-02T06:23:14.287Z,6.28
2023-05-02T06:25:41.592Z,6.54
2023-05-02T06:28:08.324Z,6.73
2023-05-02T06:30:35.352Z,6.61
2023-05-02T06:33:04.946Z,6.57
2023-05-02T06:35:31.918Z,6.56
2023-05-02T06:37:59.243Z,6.71
2023-05-02T06:40:26.410Z,6.70
2023-05-02T06:42:56.033Z,6.83
2023-05-02T06:45:23.016Z,6.61
2023-05-02T06:47:49.992Z,6.83
2023-05-02T06:50:17.253Z,7.04
2023-05-02T06:52:44.836Z,7.17
2023-05-02T06:55:12.235Z,7.04
2023-05-02T06:57:40.100Z,7.16
2023-05-02T07:00:08.660Z,7.11
2023-05-02T07:02:35.490Z,7.32
2023-05-02T07:05:02.616Z,7.25
2023-05-02T07:07:29.392Z,7.57
2023-05-02T07:09:56.298Z,7.98
2023-05-02T07:12:22.986Z,8.13
2023-05-02T07:14:50.041Z,7.62
2023-05-02T07:17:16.771Z,7.32
2023-05-02T07:19:50.926Z,7.23
2023-05-02T07:22:18.351Z,7.01
2023-05-02T07:24:45.212Z,7.06
2023-05-02T07:27:13.172Z,7.17
2023-05-02T07:29:40.202Z,7.15
2023-05-02T07:32:09.870Z,6.90
2023-05-02T07:34:37.913Z,7.02
2023-05-02T07:37:04.990Z,7.59
2023-05-02T07:39:33.037Z,7.37
2023-05-02T07:42:00.428Z,7.42
2023-05-02T07:44:27.215Z,7.29
2023-05-02T07:46:54.902Z,7.72
2023-05-02T07:49:23.169Z,7.39
2023-05-02T07:51:50.222Z,7.83
2023-05-02T07:54:21.022Z,8.02
2023-05-02T07:56:47.802Z,8.29
2023-05-02T07:59:14.807Z,8.18
2023-05-02T08:01:42.609Z,8.46
2023-05-02T08:04:17.119Z,8.02
2023-05-02T08:06:45.145Z,8.70
2023-05-02T08:09:13.380Z,8.47
2023-05-02T08:11:40.472Z,8.27
2023-05-02T08:14:11.173Z,8.28
2023-05-02T08:16:38.964Z,8.60
2023-05-02T08:19:08.655Z,8.24
2023-05-02T08:21:35.684Z,8.07
2023-05-02T08:24:02.746Z,8.34
2023-05-02T08:26:30.481Z,8.40
2023-05-02T08:28:58.525Z,8.70
2023-05-02T08:31:25.524Z,8.03
2023-05-02T08:33:52.650Z,7.83
2023-05-02T08:36:19.931Z,7.76
2023-05-02T08:38:47.077Z,8.33
2023-05-02T08:41:18.773Z,8.14
2023-05-02T08:43:48.912Z,8.29
2023-05-02T08:46:17.112Z,8.46
2023-05-02T08:48:45.738Z,8.44
2023-05-02T08:51:14.050Z,8.75
2023-05-02T08:53:41.080Z,8.54
2023-05-02T08:56:09.341Z,8.77
2023-05-02T08:58:37.180Z,8.20
2023-05-02T09:01:09.556Z,7.92
2023-05-02T09:03:37.556Z,7.79
2023-05-02T09:06:05.911Z,7.77
2023-05-02T09:08:34.553Z,7.67
2023-05-02T09:11:04.994Z,8.41
2023-05-02T09:13:50.421Z,8.71
2023-05-02T09:16:22.633Z,8.37
2023-05-02T09:19:00.770Z,8.71
2023-05-02T09:21:54.987Z,8.90
2023-05-02T09:24:24.646Z,7.99
2023-05-02T09:27:04.865Z,7.69
2023-05-02T09:29:40.075Z,7.59
2023-05-02T09:32:06.926Z,8.52
2023-05-02T09:34:34.258Z,8.09
2023-05-02T09:37:02.202Z,7.52
2023-05-02T09:39:30.328Z,7.55
2023-05-02T09:41:57.850Z,7.65
2023-05-02T09:44:25.807Z,7.33
2023-05-02T09:46:56.915Z,7.75
2023-05-02T09:49:43.262Z,7.56
2023-05-02T09:52:13.865Z,7.61
2023-05-02T09:54:41.621Z,7.90
2023-05-02T09:57:08.382Z,8.15
2023-05-02T09:59:38.833Z,8.74
2023-05-02T10:02:06.386Z,8.24
2023-05-02T10:04:35.244Z,8.45
2023-05-02T10:07:02.570Z,7.91
2023-05-02T10:09:30.393Z,8.10
2023-05-02T10:11:57.940Z,7.59
2023-05-02T10:14:26.345Z,7.13
2023-05-02T10:17:14.929Z,7.22
2023-05-02T10:20:01.170Z,7.22
2023-05-02T10:22:27.920Z,6.68
2023-05-02T10:24:54.978Z,6.68
2023-05-02T10:27:37.118Z,7.13
2023-05-02T10:30:05.283Z,7.06
2023-05-02T10:32:33.581Z,6.86
2023-05-02T10:35:04.936Z,6.74
2023-05-02T10:37:32.138Z,6.04
2023-05-02T10:40:00.466Z,5.97
2023-05-02T10:42:27.532Z,5.84
2023-05-02T10:44:57.218Z,5.66
2023-05-02T10:47:30.713Z,5.51
2023-05-02T10:49:58.755Z,5.56
2023-05-02T10:52:35.103Z,4.69
2023-05-02T10:55:23.499Z,4.43
2023-05-02T10:58:02.246Z,4.87
2023-05-02T11:00:33.042Z,5.09
2023-05-02T11:03:00.868Z,5.07
2023-05-02T11:05:28.300Z,5.43
2023-05-02T11:08:18.634Z,5.10
2023-05-02T11:10:48.068Z,5.18
2023-05-02T11:13:15.993Z,5.26
2023-05-02T11:16:09.027Z,5.53
2023-05-02T11:19:00.994Z,5.38
2023-05-02T11:21:31.209Z,4.89
2023-05-02T11:24:38.066Z,5.15
2023-05-02T11:27:32.248Z,5.52
2023-05-02T11:30:05.801Z,5.23
2023-05-02T11:32:51.592Z,5.12
2023-05-02T11:35:18.593Z,5.20
2023-05-02T11:38:14.407Z,6.04
2023-05-02T11:41:01.012Z,5.91
2023-05-02T11:43:45.930Z,5.57
2023-05-02T11:46:13.245Z,6.53
2023-05-02T11:48:41.170Z,6.90
2023-05-02T11:51:08.977Z,7.20
2023-05-02T11:53:40.281Z,6.55
2023-05-02T11:56:09.845Z,5.89
2023-05-02T11:58:37.061Z,4.94
2023-05-02T12:01:17.334Z,5.46
2023-05-02T12:03:45.389Z,6.24
2023-05-02T12:06:17.132Z,5.89
2023-05-02T12:08:44.749Z,5.46
2023-05-02T12:11:15.228Z,5.05
2023-05-02T12:13:46.089Z,5.22
2023-05-02T12:16:12.980Z,5.71
2023-05-02T12:18:41.007Z,5.76
2023-05-02T12:21:08.374Z,4.37
2023-05-02T12:23:35.996Z,3.79
2023-05-02T12:26:27.167Z,3.98
2023-05-02T12:28:54.333Z,4.05
2023-05-02T12:31:24.008Z,4.85
2023-05-02T12:33:51.215Z,4.03
2023-05-02T12:36:23.915Z,4.78
2023-05-02T12:38:57.767Z,4.69
2023-05-02T12:41:51.173Z,5.03
2023-05-02T12:44:35.520Z,4.87
2023-05-02T12:47:05.100Z,4.93
2023-05-02T12:49:55.039Z,5.23
2023-05-02T12:52:43.134Z,5.65
2023-05-02T12:55:23.570Z,4.75
2023-05-02T12:57:51.049Z,4.83
2023-05-02T13:00:18.295Z,5.12
2023-05-02T13:02:46.259Z,4.53
2023-05-02T13:05:17.285Z,4.68
2023-05-02T13:07:45.093Z,5.18
2023-05-02T13:10:12.140Z,4.94
2023-05-02T13:12:39.472Z,4.57
2023-05-02T13:15:08.051Z,5.66
2023-05-02T13:17:35.413Z,6.05
2023-05-02T13:20:03.943Z,5.16
2023-05-02T13:22:31.481Z,4.64
2023-05-02T13:24:58.577Z,5.10
2023-05-02T13:27:26.349Z,4.94
2023-05-02T13:29:54.378Z,4.46
2023-05-02T13:32:21.605Z,4.49
2023-05-02T13:34:51.126Z,4.10
2023-05-02T13:37:18.218Z,4.42
2023-05-02T13:39:45.026Z,4.79
2023-05-02T13:42:12.761Z,4.86
2023-05-02T13:44:39.822Z,4.86
2023-05-02T13:47:07.704Z,4.51
2023-05-02T13:49:34.736Z,4.58
2023-05-02T13:52:01.596Z,4.09
2023-05-02T13:54:28.932Z,4.22
2023-05-02T13:56:56.478Z,4.29
2023-05-02T13:59:24.597Z,4.64
2023-05-02T14:01:51.380Z,4.40
2023-05-02T14:04:18.505Z,4.22
2023-05-02T14:06:45.565Z,4.48
2023-05-02T14:09:12.689Z,5.08
2023-05-02T14:11:39.787Z,4.57
2023-05-02T14:14:06.658Z,4.79
2023-05-02T14:16:33.426Z,5.30
2023-05-02T14:19:01.495Z,5.18
2023-05-02T14:21:28.626Z,3.96
2023-05-02T14:23:58.137Z,3.72
2023-05-02T14:26:27.839Z,4.05
2023-05-02T14:28:54.616Z,4.44
2023-05-02T14:31:21.714Z,5.13
2023-05-02T14:33:48.451Z,5.32
2023-05-02T14:36:15.662Z,4.98
2023-05-02T14:38:43.772Z,5.36
2023-05-02T14:41:11.578Z,4.67
2023-05-02T14:43:38.753Z,5.37
2023-05-02T14:46:06.154Z,5.44
2023-05-02T14:48:33.198Z,4.56
2023-05-02T14:51:03.358Z,4.00
2023-05-02T14:53:30.408Z,3.45
2023-05-02T14:55:57.162Z,3.40
2023-05-02T14:58:24.202Z,3.54
2023-05-02T15:00:51.466Z,3.93
2023-05-02T15:03:18.758Z,3.85
2023-05-02T15:05:48.637Z,3.91
2023-05-02T15:08:18.555Z,4.13
2023-05-02T15:10:45.696Z,3.97
2023-05-02T15:13:12.748Z,3.90
2023-05-02T15:15:40.677Z,4.14
2023-05-02T15:18:07.885Z,4.07
2023-05-02T15:20:34.943Z,4.71
2023-05-02T15:23:01.832Z,4.65
2023-05-02T15:25:29.774Z,4.93
2023-05-02T15:27:56.996Z,4.93
2023-05-02T15:30:24.509Z,5.03
2023-05-02T15:32:51.479Z,4.39
2023-05-02T15:35:19.536Z,4.14
2023-05-02T15:37:46.339Z,3.59
2023-05-02T15:40:15.917Z,4.11
2023-05-02T15:42:42.684Z,3.67
2023-05-02T15:45:11.954Z,3.82
2023-05-02T15:47:40.324Z,3.73
2023-05-02T15:50:10.577Z,3.87
2023-05-02T15:52:37.799Z,3.63
2023-05-02T15:55:05.928Z,4.05
2023-05-02T15:57:32.648Z,3.92
2023-05-02T16:00:00.523Z,3.95
2023-05-02T16:02:28.609Z,3.92
2023-05-02T16:04:56.135Z,3.47
2023-05-02T16:07:23.180Z,3.37
2023-05-02T16:09:50.199Z,3.74
2023-05-02T16:12:17.215Z,3.53
2023-05-02T16:14:44.234Z,3.22
2023-05-02T16:17:12.253Z,3.34
2023-05-02T16:19:39.273Z,3.30
2023-05-02T16:22:06.359Z,3.08
2023-05-02T16:24:33.447Z,3.51
2023-05-02T16:27:00.714Z,4.40
2023-05-02T16:29:27.571Z,4.50
2023-05-02T16:31:54.470Z,4.28
2023-05-02T16:34:22.333Z,4.47
2023-05-02T16:36:51.621Z,4.25
2023-05-02T16:39:20.213Z,3.83
2023-05-02T16:41:47.957Z,3.83
2023-05-02T16:44:17.628Z,3.76
2023-05-02T16:46:44.672Z,3.33
2023-05-02T16:49:12.194Z,3.93
2023-05-02T16:51:38.955Z,4.26
2023-05-02T16:54:06.116Z,3.86
2023-05-02T16:56:33.836Z,3.90
2023-05-02T16:59:01.317Z,3.63
2023-05-02T17:01:30.856Z,4.43
2023-05-02T17:03:58.449Z,4.12
2023-05-02T17:06:28.000Z,3.99
2023-05-02T17:08:56.103Z,3.86
2023-05-02T17:11:22.852Z,4.16
2023-05-02T17:13:49.896Z,4.26
2023-05-02T17:16:16.710Z,4.90
2023-05-02T17:18:43.854Z,4.61
2023-05-02T17:21:10.856Z,4.57
2023-05-02T17:23:38.055Z,4.40
2023-05-02T17:26:05.882Z,4.39
2023-05-02T17:28:32.873Z,4.51
2023-05-02T17:31:02.177Z,4.50
2023-05-02T17:33:48.289Z,4.72
2023-05-02T17:36:18.638Z,4.58
2023-05-02T17:39:01.024Z,4.48
2023-05-02T17:41:28.206Z,3.86
2023-05-02T17:43:55.684Z,3.63
2023-05-02T17:46:22.832Z,3.66
2023-05-02T17:48:52.555Z,3.56
2023-05-02T17:51:19.687Z,3.76
2023-05-02T17:53:53.413Z,4.29
2023-05-02T17:56:21.072Z,4.12
2023-05-02T17:58:48.137Z,4.36
2023-05-02T18:01:16.054Z,4.45
2023-05-02T18:03:43.136Z,5.17
2023-05-02T18:06:15.628Z,5.20
2023-05-02T18:08:42.679Z,5.25
2023-05-02T18:11:28.342Z,5.74
2023-05-02T18:13:56.308Z,5.35
2023-05-02T18:16:23.430Z,5.48
2023-05-02T18:18:50.813Z,5.89
2023-05-02T18:21:22.537Z,5.94
2023-05-02T18:23:49.292Z,6.11
2023-05-02T18:28:56.623Z,5.80
2023-05-02T18:31:23.814Z,6.10
2023-05-02T18:33:50.609Z,6.54
2023-05-02T18:36:20.003Z,6.84
2023-05-02T18:38:48.144Z,6.85
2023-05-02T18:41:15.399Z,7.54
2023-05-02T18:43:42.143Z,7.50
2023-05-02T18:46:09.467Z,7.91
2023-05-02T18:48:36.535Z,7.68
2023-05-02T18:51:03.469Z,7.83
2023-05-02T18:53:30.408Z,7.69
2023-05-02T18:55:59.992Z,7.20
2023-05-02T18:58:26.806Z,7.03
2023-05-02T19:00:54.105Z,7.18
2023-05-02T19:03:21.308Z,6.83
2023-05-02T19:05:48.220Z,6.85
2023-05-02T19:08:15.332Z,6.55
2023-05-02T19:10:42.500Z,6.86
2023-05-02T19:13:09.751Z,6.55
2023-05-02T19:15:37.341Z,6.32
2023-05-02T19:18:04.587Z,6.43
2023-05-02T19:20:34.247Z,6.22
2023-05-02T19:23:18.241Z,5.98
2023-05-02T19:25:49.320Z,5.60
2023-05-02T19:28:19.254Z,5.50
2023-05-02T19:30:46.061Z,5.64
2023-05-02T19:33:13.369Z,5.63
2023-05-02T19:35:41.238Z,5.47
2023-05-02T19:38:09.313Z,5.56
2023-05-02T19:40:35.992Z,5.23
2023-05-02T19:43:04.091Z,5.08
2023-05-02T19:45:33.584Z,5.29
2023-05-02T19:48:00.431Z,5.15
2023-05-02T19:50:27.611Z,5.04
2023-05-02T19:52:55.318Z,4.85
2023-05-02T19:55:22.742Z,5.08
2023-05-02T19:57:52.590Z,4.85
2023-05-02T20:00:20.119Z,5.07
2023-05-02T20:02:48.727Z,4.96
2023-05-02T20:05:16.673Z,4.73
2023-05-02T20:07:46.195Z,4.74
2023-05-02T20:10:12.903Z,4.55
2023-05-02T20:12:40.684Z,4.89
2023-05-02T20:15:08.479Z,4.88
2023-05-02T20:17:36.639Z,4.81
2023-05-02T20:20:07.056Z,4.51
2023-05-02T20:22:37.354Z,4.92
2023-05-02T20:25:04.481Z,4.80
2023-05-02T20:27:32.914Z,4.81
2023-05-02T20:29:59.918Z,4.54
2023-05-02T20:32:28.309Z,5.02
2023-05-02T20:34:55.046Z,4.94
2023-05-02T20:37:24.614Z,4.76
2023-05-02T20:39:54.098Z,5.15
2023-05-02T20:42:20.985Z,5.23
2023-05-02T20:44:47.956Z,5.08
2023-05-02T20:47:17.474Z,5.28
2023-05-02T20:49:44.486Z,5.57
2023-05-02T20:52:11.526Z,5.68
2023-05-02T20:54:38.647Z,5.59
2023-05-02T20:57:05.378Z,5.89
2023-05-02T20:59:32.357Z,5.63
2023-05-02T21:01:59.413Z,5.85
2023-05-02T21:04:26.631Z,5.81
2023-05-02T21:06:53.878Z,5.72
2023-05-02T21:09:20.966Z,5.55
2023-05-02T21:11:47.994Z,5.58
2023-05-02T21:14:15.432Z,5.04
2023-05-02T21:16:42.523Z,5.38
2023-05-02T21:19:09.616Z,4.84
2023-05-02T21:21:39.163Z,5.09
2023-05-02T21:24:08.536Z,4.77
2023-05-02T21:26:35.741Z,4.82
2023-05-02T21:29:02.816Z,4.91
2023-05-02T21:31:29.712Z,5.12
2023-05-02T21:33:57.240Z,4.85
2023-05-02T21:36:23.942Z,4.98
2023-05-02T21:38:51.228Z,4.81
2023-05-02T21:41:18.268Z,4.93
2023-05-02T21:43:46.283Z,4.96
2023-05-02T21:46:13.048Z,5.14
2023-05-02T21:48:39.802Z,5.24
2023-05-02T21:51:13.124Z,5.37
2023-05-02T21:53:42.710Z,5.46
2023-05-02T21:56:10.211Z,5.33
2023-05-02T21:58:38.028Z,5.42
2023-05-02T22:01:07.727Z,5.39
2023-05-02T22:03:35.127Z,5.72
2023-05-02T22:06:02.321Z,5.79
2023-05-02T22:08:29.418Z,6.00
2023-05-02T22:10:56.281Z,6.27
2023-05-02T22:13:23.035Z,6.11
2023-05-02T22:15:49.793Z,5.98
2023-05-02T22:18:17.302Z,6.28
2023-05-02T22:20:44.551Z,6.37
2023-05-02T22:23:14.147Z,5.98
2023-05-02T22:25:43.114Z,5.78
2023-05-02T22:28:10.157Z,6.22
2023-05-02T22:30:38.072Z,5.87
2023-05-02T22:33:05.648Z,5.86
2023-05-02T22:35:34.688Z,5.84
2023-05-02T22:38:01.752Z,6.30
2023-05-02T22:40:29.513Z,6.33
2023-05-02T22:42:56.200Z,6.09
2023-05-02T22:45:23.948Z,6.00
2023-05-02T22:47:51.006Z,6.39
2023-05-02T22:50:18.137Z,6.42
2023-05-02T22:52:46.062Z,6.80
2023-05-02T22:55:15.761Z,6.51
2023-05-02T22:57:43.222Z,7.13
2023-05-02T23:00:16.994Z,7.05
2023-05-02T23:02:45.017Z,7.33
2023-05-02T23:05:11.986Z,7.71
2023-05-02T23:07:39.053Z,7.51
2023-05-02T23:10:07.866Z,7.77
2023-05-02T23:12:35.472Z,7.76
2023-05-02T23:15:03.763Z,8.16
2023-05-02T23:17:31.797Z,7.96
2023-05-02T23:19:58.882Z,8.07
2023-05-02T23:22:26.345Z,8.10
2023-05-02T23:24:53.485Z,8.33
2023-05-02T23:27:21.270Z,8.55
2023-05-02T23:29:48.321Z,8.37
2023-05-02T23:32:16.003Z,8.29
2023-05-02T23:34:42.782Z,8.58
2023-05-02T23:37:09.539Z,8.59
2023-05-02T23:39:36.616Z,8.73
2023-05-02T23:42:03.909Z,8.51
2023-05-02T23:44:31.040Z,9.11
2023-05-02T23:46:58.941Z,8.74
2023-05-02T23:49:26.393Z,8.46
2023-05-02T23:51:53.528Z,8.91
2023-05-02T23:54:20.308Z,9.13
2023-05-02T23:56:47.115Z,8.68
2023-05-02T23:59:15.037Z,9.06
